createdAt,value
2019-01-24T00:02:25.048Z,48.63
2019-01-24T00:04:55.264Z,49.55
2019-01-24T00:07:25.458Z,47.75
2019-01-24T00:09:55.506Z,49.45
2019-01-24T00:12:25.680Z,49.98
2019-01-24T00:14:55.739Z,43.28
2019-01-24T00:17:25.886Z,45.98
2019-01-24T00:22:54.482Z,39.88
2019-01-24T00:25:26.130Z,39.88
2019-01-24T00:27:56.327Z,39.63
2019-01-24T00:30:27.988Z,40.65
2019-01-24T00:32:59.347Z,38.55
2019-01-24T00:35:29.594Z,37.28
2019-01-24T00:37:59.814Z,41.53
2019-01-24T00:40:29.842Z,40.45
2019-01-24T00:42:59.912Z,40.25
2019-01-24T00:45:30.038Z,36.35
2019-01-24T00:48:02.387Z,39.08
2019-01-24T00:50:34.008Z,39.13
2019-01-24T00:53:04.377Z,38.70
2019-01-24T00:55:34.502Z,38.63
2019-01-24T00:58:04.808Z,39.30
2019-01-24T01:00:52.057Z,34.50
2019-01-24T01:03:35.212Z,38.58
2019-01-24T01:06:08.480Z,35.65
2019-01-24T01:08:38.468Z,39.65
2019-01-24T01:11:08.419Z,35.90
2019-01-24T01:13:40.672Z,36.88
2019-01-24T01:16:10.597Z,32.65
2019-01-24T01:18:40.848Z,36.85
2019-01-24T01:21:12.038Z,34.03
2019-01-24T01:23:45.290Z,35.08
2019-01-24T01:26:15.406Z,35.00
2019-01-24T01:29:07.428Z,32.85
2019-01-24T01:31:37.968Z,32.40
2019-01-24T01:34:08.009Z,32.17
2019-01-24T01:36:38.103Z,31.95
2019-01-24T01:39:08.958Z,28.60
2019-01-24T01:41:39.063Z,32.98
2019-01-24T01:44:09.858Z,30.45
2019-01-24T01:46:40.070Z,32.40
2019-01-24T01:49:10.297Z,29.20
2019-01-24T01:51:40.518Z,26.48
2019-01-24T01:54:10.459Z,29.12
2019-01-24T01:56:40.499Z,25.92
2019-01-24T01:59:10.545Z,26.45
2019-01-24T02:01:40.529Z,25.92
2019-01-24T02:04:11.655Z,24.37
2019-01-24T02:06:41.611Z,24.12
2019-01-24T02:09:11.712Z,24.02
2019-01-24T02:11:41.713Z,22.55
2019-01-24T02:14:11.781Z,24.12
2019-01-24T02:16:44.034Z,25.57
2019-01-24T02:19:14.027Z,25.15
2019-01-24T02:21:43.930Z,26.05
2019-01-24T02:24:14.053Z,23.05
2019-01-24T02:26:45.409Z,20.60
2019-01-24T02:29:17.524Z,24.32
2019-01-24T02:31:47.569Z,21.70
2019-01-24T02:34:17.614Z,23.40
2019-01-24T02:36:47.486Z,21.42
2019-01-24T02:39:17.484Z,20.30
2019-01-24T02:41:47.489Z,22.17
2019-01-24T02:44:17.406Z,22.48
2019-01-24T02:46:47.616Z,20.10
2019-01-24T02:49:17.905Z,19.67
2019-01-24T02:51:48.799Z,21.27
2019-01-24T02:54:18.926Z,20.88
2019-01-24T02:56:49.008Z,18.45
2019-01-24T02:59:25.314Z,20.25
2019-01-24T03:01:55.303Z,19.73
2019-01-24T03:04:25.294Z,21.60
2019-01-24T03:06:55.266Z,19.05
2019-01-24T03:09:25.199Z,20.20
2019-01-24T03:11:55.327Z,19.73
2019-01-24T03:14:25.365Z,19.62
2019-01-24T03:16:55.396Z,18.45
2019-01-24T03:19:25.616Z,19.50
2019-01-24T03:21:55.748Z,20.50
2019-01-24T03:24:25.705Z,19.42
2019-01-24T03:27:05.055Z,19.40
2019-01-24T03:29:35.083Z,22.42
2019-01-24T03:32:08.603Z,19.37
2019-01-24T03:34:38.732Z,22.55
2019-01-24T03:37:11.071Z,18.42
2019-01-24T03:39:42.641Z,18.90
2019-01-24T03:42:13.152Z,19.45
2019-01-24T03:44:43.592Z,17.77
2019-01-24T03:47:13.931Z,17.62
2019-01-24T03:49:43.865Z,18.42
2019-01-24T03:52:13.791Z,19.55
2019-01-24T03:54:43.720Z,17.32
2019-01-24T03:57:13.787Z,20.95
2019-01-24T03:59:44.811Z,18.95
2019-01-24T04:02:16.309Z,19.52
2019-01-24T04:04:46.103Z,19.17
2019-01-24T04:07:16.053Z,19.98
2019-01-24T04:09:46.249Z,18.57
2019-01-24T04:12:21.286Z,17.23
2019-01-24T04:15:00.583Z,19.45
2019-01-24T04:17:33.237Z,20.23
2019-01-24T04:20:03.107Z,18.27
2019-01-24T04:22:33.067Z,18.25
2019-01-24T04:25:02.884Z,18.23
2019-01-24T04:27:37.610Z,20.62
2019-01-24T04:30:09.878Z,19.32
2019-01-24T04:32:39.808Z,21.97
2019-01-24T04:35:19.269Z,20.30
2019-01-24T04:37:41.853Z,21.40
2019-01-24T04:40:16.219Z,22.45
2019-01-24T04:42:47.526Z,19.73
2019-01-24T04:45:19.156Z,20.88
2019-01-24T04:47:52.923Z,21.45
2019-01-24T04:50:22.758Z,20.72
2019-01-24T04:52:54.699Z,19.67
2019-01-24T04:55:24.629Z,21.00
2019-01-24T04:57:54.985Z,19.27
2019-01-24T05:00:27.351Z,20.02
2019-01-24T05:03:20.176Z,19.10
2019-01-24T05:05:50.133Z,18.15
2019-01-24T05:08:20.310Z,20.05
2019-01-24T05:10:50.178Z,17.95
2019-01-24T05:13:20.026Z,19.50
2019-01-24T05:15:51.632Z,18.30
2019-01-24T05:18:24.492Z,20.97
2019-01-24T05:20:54.779Z,19.32
2019-01-24T05:23:24.608Z,20.25
2019-01-24T05:25:56.957Z,19.48
2019-01-24T05:28:27.018Z,20.62
2019-01-24T05:31:01.773Z,19.55
2019-01-24T05:33:37.060Z,21.97
2019-01-24T05:36:06.886Z,21.20
2019-01-24T05:38:36.850Z,23.05
2019-01-24T05:41:06.782Z,20.92
2019-01-24T05:43:36.723Z,20.48
2019-01-24T05:46:06.716Z,20.62
2019-01-24T05:48:36.758Z,21.80
2019-01-24T05:51:06.750Z,20.37
2019-01-24T05:53:36.882Z,21.37
2019-01-24T05:56:08.146Z,22.22
2019-01-24T05:58:38.066Z,20.00
2019-01-24T06:01:09.516Z,19.00
2019-01-24T06:03:42.612Z,19.07
2019-01-24T06:06:13.620Z,19.73
2019-01-24T06:08:43.569Z,21.17
2019-01-24T06:11:13.577Z,19.30
2019-01-24T06:13:44.533Z,20.43
2019-01-24T06:16:15.683Z,20.55
2019-01-24T06:18:45.661Z,19.15
2019-01-24T06:21:15.653Z,21.77
2019-01-24T06:23:45.610Z,22.40
2019-01-24T06:26:15.583Z,22.05
2019-01-24T06:28:51.313Z,22.15
2019-01-24T06:31:21.159Z,20.30
2019-01-24T06:33:51.051Z,23.52
2019-01-24T06:36:20.989Z,20.92
2019-01-24T06:38:50.910Z,20.82
2019-01-24T06:41:20.834Z,22.22
2019-01-24T06:43:53.833Z,21.73
2019-01-24T06:46:23.863Z,21.45
2019-01-24T06:48:53.788Z,19.10
2019-01-24T06:51:23.723Z,20.15
2019-01-24T06:53:53.557Z,21.95
2019-01-24T06:56:24.582Z,21.65
2019-01-24T06:58:54.874Z,19.82
2019-01-24T07:01:24.833Z,20.25
2019-01-24T07:03:55.017Z,20.77
2019-01-24T07:06:25.115Z,20.10
2019-01-24T07:08:55.189Z,20.62
2019-01-24T07:11:25.172Z,22.40
2019-01-24T07:13:55.175Z,20.27
2019-01-24T07:16:25.215Z,19.80
2019-01-24T07:18:55.157Z,21.42
2019-01-24T07:21:25.112Z,20.02
2019-01-24T07:23:55.187Z,21.52
2019-01-24T07:26:25.121Z,21.48
2019-01-24T07:28:55.078Z,21.68
2019-01-24T07:31:25.352Z,23.10
2019-01-24T07:33:55.261Z,21.02
2019-01-24T07:36:25.284Z,23.10
2019-01-24T07:38:55.308Z,21.50
2019-01-24T07:41:25.321Z,23.55
2019-01-24T07:43:55.324Z,21.10
2019-01-24T07:46:25.341Z,24.15
2019-01-24T07:48:55.883Z,22.40
2019-01-24T07:51:27.134Z,24.77
2019-01-24T07:53:57.283Z,23.18
2019-01-24T07:56:27.408Z,21.82
2019-01-24T07:58:57.588Z,22.05
2019-01-24T08:01:29.189Z,24.18
2019-01-24T08:03:59.303Z,23.32
2019-01-24T08:06:29.218Z,21.40
2019-01-24T08:08:59.235Z,24.50
2019-01-24T08:11:29.248Z,21.50
2019-01-24T08:13:59.454Z,22.02
2019-01-24T08:16:30.854Z,22.13
2019-01-24T08:19:01.228Z,21.62
2019-01-24T08:21:31.223Z,22.95
2019-01-24T08:24:01.258Z,23.05
2019-01-24T08:26:31.166Z,23.15
2019-01-24T08:29:04.008Z,21.20
2019-01-24T08:31:33.975Z,21.35
2019-01-24T08:34:03.900Z,22.35
2019-01-24T08:36:33.954Z,22.17
2019-01-24T08:39:05.648Z,20.48
2019-01-24T08:41:35.755Z,20.72
2019-01-24T08:44:05.670Z,21.12
2019-01-24T08:46:38.642Z,23.05
2019-01-24T08:49:08.616Z,18.77
2019-01-24T08:51:38.596Z,20.72
2019-01-24T08:54:08.545Z,22.02
2019-01-24T08:56:38.391Z,20.32
2019-01-24T08:59:08.431Z,21.05
2019-01-24T09:01:38.551Z,19.77
2019-01-24T09:04:08.380Z,20.17
2019-01-24T09:06:38.362Z,18.27
2019-01-24T09:09:09.697Z,19.00
2019-01-24T09:11:39.718Z,19.52
2019-01-24T09:14:09.725Z,20.10
2019-01-24T09:16:39.767Z,21.37
2019-01-24T09:19:09.696Z,20.70
2019-01-24T09:21:39.636Z,20.70
2019-01-24T09:24:09.591Z,21.45
2019-01-24T09:26:39.585Z,19.65
2019-01-24T09:29:09.541Z,21.37
2019-01-24T09:31:40.926Z,20.25
2019-01-24T09:34:11.911Z,19.85
2019-01-24T09:36:41.893Z,19.95
2019-01-24T09:39:11.845Z,20.60
2019-01-24T09:41:41.911Z,22.62
2019-01-24T09:44:11.784Z,21.48
2019-01-24T09:46:41.753Z,21.90
2019-01-24T09:49:11.720Z,19.82
2019-01-24T09:51:41.605Z,22.02
2019-01-24T09:54:13.333Z,22.05
2019-01-24T09:56:43.441Z,21.97
2019-01-24T09:59:13.455Z,23.32
2019-01-24T10:01:43.367Z,21.05
2019-01-24T10:04:13.406Z,21.07
2019-01-24T10:06:43.551Z,24.25
2019-01-24T10:09:13.569Z,21.70
2019-01-24T10:11:43.539Z,23.75
2019-01-24T10:14:13.577Z,24.02
2019-01-24T10:16:43.659Z,21.45
2019-01-24T10:19:13.587Z,22.07
2019-01-24T10:21:43.462Z,22.60
2019-01-24T10:24:13.403Z,24.52
2019-01-24T10:26:43.387Z,22.77
2019-01-24T10:29:13.323Z,22.87
2019-01-24T10:31:43.217Z,27.32
2019-01-24T10:34:13.109Z,24.63
2019-01-24T10:36:43.321Z,23.40
2019-01-24T10:39:13.606Z,23.55
2019-01-24T10:41:44.593Z,24.23
2019-01-24T10:44:14.677Z,24.63
2019-01-24T10:46:44.585Z,24.82
2019-01-24T10:49:14.573Z,24.82
2019-01-24T10:51:44.451Z,21.30
2019-01-24T10:54:14.662Z,23.45
2019-01-24T10:56:51.745Z,24.12
2019-01-24T10:59:49.623Z,25.25
2019-01-24T11:02:19.583Z,21.70
2019-01-24T11:04:56.718Z,24.25
2019-01-24T11:07:26.788Z,25.35
2019-01-24T11:09:59.129Z,25.10
2019-01-24T11:12:29.128Z,24.90
2019-01-24T11:15:00.548Z,26.87
2019-01-24T11:17:32.598Z,26.65
2019-01-24T11:20:02.468Z,25.23
2019-01-24T11:22:32.437Z,24.72
2019-01-24T11:25:02.402Z,25.00
2019-01-24T11:27:32.463Z,25.20
2019-01-24T11:30:02.472Z,25.30
2019-01-24T11:32:32.590Z,24.25
2019-01-24T11:35:02.677Z,25.30
2019-01-24T11:37:32.978Z,25.95
2019-01-24T11:40:03.021Z,25.12
2019-01-24T11:42:33.010Z,25.65
2019-01-24T11:45:03.056Z,26.07
2019-01-24T11:47:33.051Z,24.85
2019-01-24T11:50:03.152Z,27.02
2019-01-24T11:52:33.265Z,24.87
2019-01-24T11:55:03.467Z,26.07
2019-01-24T11:57:33.591Z,25.82
2019-01-24T12:00:03.702Z,27.15
2019-01-24T12:02:39.709Z,25.15
2019-01-24T12:05:07.954Z,25.48
2019-01-24T12:07:39.100Z,26.33
2019-01-24T12:10:12.314Z,23.92
2019-01-24T12:16:16.068Z,22.32
2019-01-24T12:18:46.402Z,22.00
2019-01-24T12:21:16.491Z,20.30
2019-01-24T12:23:46.620Z,22.85
2019-01-24T12:26:16.670Z,21.17
2019-01-24T12:28:46.655Z,21.93
2019-01-24T12:31:16.892Z,21.52
2019-01-24T12:33:46.772Z,20.52
2019-01-24T12:36:16.604Z,23.10
2019-01-24T12:38:46.520Z,22.52
2019-01-24T12:41:16.658Z,22.77
2019-01-24T12:43:49.137Z,22.45
2019-01-24T12:46:21.326Z,24.07
2019-01-24T12:48:51.542Z,23.30
2019-01-24T12:51:21.664Z,23.52
2019-01-24T12:53:52.652Z,22.13
2019-01-24T12:56:22.620Z,20.88
2019-01-24T12:58:52.588Z,25.12
2019-01-24T13:01:27.028Z,21.40
2019-01-24T13:04:03.868Z,21.75
2019-01-24T13:06:37.643Z,21.33
2019-01-24T13:09:08.685Z,23.15
2019-01-24T13:11:40.457Z,23.95
2019-01-24T13:14:10.404Z,22.65
2019-01-24T13:16:40.425Z,23.57
2019-01-24T13:19:10.583Z,22.85
2019-01-24T13:21:46.375Z,23.80
2019-01-24T13:24:16.351Z,24.43
2019-01-24T13:26:47.577Z,23.95
2019-01-24T13:29:17.567Z,24.15
2019-01-24T13:31:47.715Z,22.55
2019-01-24T13:34:19.789Z,20.68
2019-01-24T13:37:18.250Z,22.15
2019-01-24T13:39:53.002Z,22.35
2019-01-24T13:45:58.615Z,22.30
2019-01-24T13:48:28.799Z,22.13
2019-01-24T13:51:11.795Z,22.20
2019-01-24T13:53:44.985Z,22.90
2019-01-24T13:56:14.865Z,22.25
2019-01-24T13:58:45.689Z,21.30
2019-01-24T14:01:15.649Z,24.50
2019-01-24T14:04:05.941Z,20.85
2019-01-24T14:06:35.887Z,19.98
2019-01-24T14:11:50.676Z,22.13
2019-01-24T14:14:22.819Z,19.42
2019-01-24T14:16:52.723Z,19.32
2019-01-24T14:19:23.005Z,17.25
2019-01-24T14:21:52.981Z,21.50
2019-01-24T14:24:23.047Z,18.80
2019-01-24T14:26:52.970Z,18.80
2019-01-24T14:29:23.149Z,17.65
2019-01-24T14:31:53.488Z,20.35
2019-01-24T14:34:23.688Z,20.05
2019-01-24T14:36:54.021Z,19.62
2019-01-24T14:39:24.215Z,16.73
2019-01-24T14:41:57.360Z,17.70
2019-01-24T14:44:27.468Z,15.95
2019-01-24T14:46:57.656Z,16.62
2019-01-24T14:49:28.186Z,17.82
2019-01-24T14:51:58.505Z,16.75
2019-01-24T14:54:29.853Z,17.45
2019-01-24T14:56:59.925Z,15.50
2019-01-24T14:59:29.909Z,15.13
2019-01-24T15:02:00.847Z,15.25
2019-01-24T15:04:30.948Z,14.03
2019-01-24T15:07:00.937Z,15.20
2019-01-24T15:09:32.181Z,14.55
2019-01-24T15:12:02.628Z,14.63
2019-01-24T15:14:32.630Z,12.25
2019-01-24T15:17:02.916Z,14.35
2019-01-24T15:19:33.860Z,15.48
2019-01-24T15:22:03.962Z,14.03
2019-01-24T15:24:34.070Z,14.40
2019-01-24T15:27:04.059Z,13.28
2019-01-24T15:29:33.980Z,15.35
2019-01-24T15:32:07.172Z,15.38
2019-01-24T15:34:37.182Z,14.87
2019-01-24T15:37:07.328Z,14.73
2019-01-24T15:39:38.585Z,18.30
2019-01-24T15:42:08.885Z,15.68
2019-01-24T15:44:38.955Z,17.40
2019-01-24T15:47:09.174Z,16.52
2019-01-24T15:49:39.349Z,16.60
2019-01-24T15:52:09.234Z,16.80
2019-01-24T15:54:39.222Z,17.37
2019-01-24T15:57:10.710Z,17.05
2019-01-24T15:59:40.744Z,16.40
2019-01-24T16:02:10.967Z,16.23
2019-01-24T16:04:41.057Z,16.57
2019-01-24T16:07:11.028Z,16.60
2019-01-24T16:09:41.096Z,18.32
2019-01-24T16:12:11.498Z,17.75
2019-01-24T16:14:42.290Z,17.45
2019-01-24T16:17:26.721Z,17.98
2019-01-24T16:20:18.478Z,17.20
2019-01-24T16:22:48.730Z,18.50
2019-01-24T16:25:19.048Z,17.30
2019-01-24T16:27:49.572Z,18.20
2019-01-24T16:30:21.892Z,17.40
2019-01-24T16:32:57.833Z,18.02
2019-01-24T16:35:28.102Z,17.27
2019-01-24T16:37:58.708Z,17.57
2019-01-24T16:40:30.262Z,17.50
2019-01-24T16:43:10.168Z,18.07
2019-01-24T16:45:45.491Z,16.60
2019-01-24T16:48:15.716Z,16.67
2019-01-24T16:50:45.889Z,19.00
2019-01-24T16:53:15.877Z,19.92
2019-01-24T16:55:53.059Z,18.62
2019-01-24T16:58:25.065Z,18.73
2019-01-24T17:01:13.238Z,18.23
2019-01-24T17:03:43.579Z,20.43
2019-01-24T17:06:13.749Z,19.15
2019-01-24T17:08:44.684Z,18.30
2019-01-24T17:11:16.161Z,19.35
2019-01-24T17:13:46.324Z,18.85
2019-01-24T17:16:16.243Z,18.65
2019-01-24T17:18:46.176Z,19.07
2019-01-24T17:21:17.947Z,18.87
2019-01-24T17:23:48.087Z,20.55
2019-01-24T17:26:18.105Z,19.17
2019-01-24T17:28:48.147Z,18.98
2019-01-24T17:31:24.029Z,18.45
2019-01-24T17:36:43.241Z,18.45
2019-01-24T17:39:13.857Z,18.73
2019-01-24T17:41:44.264Z,17.02
2019-01-24T17:44:16.337Z,19.32
2019-01-24T17:46:49.261Z,18.62
2019-01-24T17:49:20.812Z,18.35
2019-01-24T17:51:50.773Z,18.07
2019-01-24T17:54:20.799Z,19.37
2019-01-24T17:56:51.830Z,18.48
2019-01-24T17:59:25.845Z,18.15
2019-01-24T18:02:07.466Z,17.42
2019-01-24T18:04:39.160Z,17.48
2019-01-24T18:07:09.176Z,17.05
2019-01-24T18:09:39.151Z,17.50
2019-01-24T18:12:10.205Z,18.12
2019-01-24T18:14:42.232Z,18.00
2019-01-24T18:17:18.227Z,15.35
2019-01-24T18:19:48.279Z,17.98
2019-01-24T18:22:18.488Z,16.10
2019-01-24T18:24:50.051Z,16.57
2019-01-24T18:27:20.230Z,15.83
2019-01-24T18:29:50.219Z,19.10
2019-01-24T18:32:22.999Z,18.50
2019-01-24T18:34:53.294Z,18.80
2019-01-24T18:37:24.879Z,17.82
2019-01-24T18:40:00.132Z,19.25
2019-01-24T18:42:30.223Z,16.15
2019-01-24T18:45:00.391Z,17.85
2019-01-24T18:47:30.628Z,17.00
2019-01-24T18:50:01.668Z,18.70
2019-01-24T18:52:34.970Z,18.15
2019-01-24T18:55:06.509Z,16.62
2019-01-24T18:57:40.659Z,17.85
2019-01-24T19:00:14.438Z,19.15
2019-01-24T19:02:47.676Z,18.20
2019-01-24T19:05:21.065Z,20.65
2019-01-24T19:07:54.019Z,19.37
2019-01-24T19:10:40.231Z,19.82
2019-01-24T19:13:12.528Z,18.00
2019-01-24T19:15:47.336Z,18.80
2019-01-24T19:18:17.516Z,20.50
2019-01-24T19:20:52.756Z,19.57
2019-01-24T19:23:22.887Z,20.92
2019-01-24T19:25:58.425Z,20.55
2019-01-24T19:28:34.774Z,20.15
2019-01-24T19:31:09.085Z,21.62
2019-01-24T19:33:40.284Z,19.17
2019-01-24T19:36:10.665Z,20.30
2019-01-24T19:38:58.422Z,21.33
2019-01-24T19:41:30.870Z,21.15
2019-01-24T19:44:00.909Z,20.52
2019-01-24T19:46:32.312Z,22.87
2019-01-24T19:49:14.675Z,22.13
2019-01-24T19:51:48.015Z,23.60
2019-01-24T19:54:18.038Z,21.40
2019-01-24T19:56:54.486Z,22.25
2019-01-24T19:59:22.568Z,21.15
2019-01-24T20:01:52.811Z,22.70
2019-01-24T20:04:23.931Z,23.73
2019-01-24T20:06:54.006Z,23.45
2019-01-24T20:09:23.993Z,24.30
2019-01-24T20:11:54.908Z,22.80
2019-01-24T20:14:37.953Z,23.40
2019-01-24T20:17:08.165Z,23.15
2019-01-24T20:19:38.321Z,23.90
2019-01-24T20:22:08.314Z,22.50
2019-01-24T20:24:38.655Z,24.37
2019-01-24T20:27:08.679Z,23.75
2019-01-24T20:29:38.681Z,23.15
2019-01-24T20:32:10.918Z,24.25
2019-01-24T20:34:40.924Z,24.43
2019-01-24T20:37:11.207Z,24.90
2019-01-24T20:39:41.914Z,24.50
2019-01-24T20:42:12.612Z,24.65
2019-01-24T20:44:42.839Z,25.57
2019-01-24T20:47:15.017Z,25.15
2019-01-24T20:49:47.233Z,24.02
2019-01-24T20:52:17.496Z,27.93
2019-01-24T20:54:47.924Z,23.35
2019-01-24T20:57:18.700Z,24.50
2019-01-24T20:59:50.980Z,26.17
2019-01-24T21:02:27.623Z,26.05
2019-01-24T21:04:58.341Z,22.58
2019-01-24T21:07:28.897Z,25.50
2019-01-24T21:10:01.727Z,24.92
2019-01-24T21:12:32.186Z,26.10
2019-01-24T21:15:02.268Z,24.82
2019-01-24T21:17:32.461Z,25.57
2019-01-24T21:20:02.507Z,24.98
2019-01-24T21:22:33.930Z,26.48
2019-01-24T21:25:04.170Z,26.57
2019-01-24T21:27:34.354Z,25.95
2019-01-24T21:30:05.038Z,25.32
2019-01-24T21:32:37.040Z,26.62
2019-01-24T21:35:08.518Z,26.95
2019-01-24T21:37:48.031Z,27.35
2019-01-24T21:40:19.308Z,27.90
2019-01-24T21:42:49.470Z,28.25
2019-01-24T21:45:26.682Z,28.98
2019-01-24T21:47:56.858Z,27.05
2019-01-24T21:50:27.823Z,26.65
2019-01-24T21:52:58.097Z,30.75
2019-01-24T21:55:29.314Z,28.00
2019-01-24T21:58:01.185Z,25.23
2019-01-24T22:00:33.011Z,27.35
2019-01-24T22:03:03.919Z,27.75
2019-01-24T22:05:34.430Z,27.98
2019-01-24T22:08:04.690Z,29.67
2019-01-24T22:10:35.417Z,29.02
2019-01-24T22:13:07.815Z,29.32
2019-01-24T22:15:38.296Z,29.80
2019-01-24T22:18:08.879Z,29.85
2019-01-24T22:20:40.045Z,33.08
2019-01-24T22:23:10.483Z,33.40
2019-01-24T22:25:41.107Z,31.87
2019-01-24T22:28:13.045Z,34.78
2019-01-24T22:30:50.911Z,32.30
2019-01-24T22:33:21.019Z,32.42
2019-01-24T22:35:51.207Z,32.65
2019-01-24T22:38:21.574Z,32.03
2019-01-24T22:40:51.661Z,30.72
2019-01-24T22:43:23.380Z,31.62
2019-01-24T22:45:53.499Z,31.48
2019-01-24T22:48:23.509Z,31.30
2019-01-24T22:50:53.493Z,31.10
2019-01-24T22:53:23.403Z,29.37
2019-01-24T22:55:53.533Z,30.70
2019-01-24T22:58:23.936Z,29.92
2019-01-24T23:01:29.849Z,29.57
2019-01-24T23:04:04.439Z,28.32
2019-01-24T23:06:34.432Z,29.90
2019-01-24T23:09:05.913Z,30.80
2019-01-24T23:11:39.226Z,30.32
2019-01-24T23:14:09.551Z,28.50
2019-01-24T23:16:41.350Z,30.02
2019-01-24T23:19:11.415Z,28.85
2019-01-24T23:21:41.643Z,31.33
2019-01-24T23:24:11.679Z,30.80
2019-01-24T23:26:41.825Z,30.08
2019-01-24T23:29:11.871Z,30.40
2019-01-24T23:31:43.560Z,32.30
2019-01-24T23:34:14.003Z,30.92
2019-01-24T23:36:44.995Z,31.82
2019-01-24T23:39:15.665Z,31.37
2019-01-24T23:41:45.710Z,29.23
2019-01-24T23:44:15.693Z,31.33
2019-01-24T23:46:47.323Z,30.20
2019-01-24T23:49:17.301Z,29.27
2019-01-24T23:51:48.978Z,28.75
2019-01-24T23:54:20.519Z,29.42
2019-01-24T23:56:52.581Z,30.62
2019-01-24T23:59:22.601Z,30.55
